Black Earth, WI

5:33 AM CST on March 03, 2015 (GMT -0600)
Vermont Township | Change Station
CLOSE
Current Station
Personal Weather Station
Location: Black Earth, WI
Elevation: 1110 ft
Nearby Weather Stations
Active Advisory: Winter Weather Advisory

Elev 1110 ft 43.08 °N, 89.79 °W | Updated 9 seconds ago

Overcast
Overcast
22.6 °F
Feels Like 16 °F
N
5.0
Wind Variable Wind from SSW
Gusts 16.0 mph

Today
High -- | Low -- °F
--% Chance of Precip.
Yesterday
High -- | Low -- °F
Precip. -- in
6:32 AM 5:50 PM
Waxing Gibbous, 95% visible
Pressure 29.92 in
Visibility 5.0 miles
Clouds Scattered Clouds 2000 ft
Overcast 3900 ft
Windchill 16 °F
Dew Point 20 °F
Humidity 88%
Rainfall 0.00 in
Snow Depth Not available.
UV 0 out of 12
Pollen .50 out of 12
Air Quality Not available.
Flu Activity Not available.
METAR KC29 031115Z AUTO 15009KT 5SM SCT020 OVC039 M04/M07 A2992 RMK AO1 T10371073

More Conditions Fewer Conditions

Pressure 29.92 in
Visibility 5.0 miles
Clouds Scattered Clouds 2000 ft
Overcast 3900 ft
Windchill 16 °F
Dew Point 20 °F
Humidity 88%
Rainfall 0.00 in
Snow Depth Not available.
UV 0 out of 12
Pollen .50 out of 12
Air Quality Not available.
Flu Activity Not available.
METAR KC29 031115Z AUTO 15009KT 5SM SCT020 OVC039 M04/M07 A2992 RMK AO1 T10371073

More Conditions Fewer Conditions

10-Day Weather Forecast

Almanac

Astronomy

Mar. 03, 2015 Rise Set
Actual Time
Civil Twilight
Nautical Twilight
Astronomical Twilight
Moon
Length of Visible Light
Length of Day
Tomorrow will be .
, % of the Moon is Illuminated

Today's Extremes

State Highs State Lows

Community

WunderPhotos

Upload Photos

1,802,090 photos uploaded!

WunderBlogs® & News

Nearby

Air Quality

  Air Quality AQ Index Pollutant
Not available.

Snow Depth

Station Depth Elevation

Earthquake Activity

City Distance Mag. Time & Date
Minimum magnitude displayed is 2.5.

Coastal Water Temperatures

Place Temperature

Nearby Weather Stations

Winter Weather Advisory
Statement as of 3:27 AM CST on March 03, 2015

... Winter Weather Advisory remains in effect until 6 PM CST this
evening...

A Winter Weather Advisory remains in effect until 6 PM CST this
evening.

* Timing... snow will arrive this morning and taper off during
the afternoon.

* Snow accumulations... 2 to 3 inches.

* Impacts... a period of snow... mixing with sleet and possibly
freezing rain... will cause slippery roads this morning.

Precautionary/preparedness actions...

A Winter Weather Advisory means that periods of snow... and sleet will
cause travel difficulties. Be prepared for slippery roads and
limited visibilities... and use caution while driving.